createdAt,value
2017-07-12T00:00:10.116Z,5.9
2017-07-12T00:01:12.512Z,5.1
2017-07-12T00:02:14.844Z,5.9
2017-07-12T00:03:17.039Z,7.2
2017-07-12T00:04:19.329Z,8.5
2017-07-12T00:05:21.623Z,5.7
2017-07-12T00:06:23.795Z,5.3
2017-07-12T00:07:26.105Z,4.9
2017-07-12T00:08:28.494Z,5.5
2017-07-12T00:09:30.886Z,5.2
2017-07-12T00:10:32.941Z,7.9
2017-07-12T00:11:35.220Z,6.2
2017-07-12T00:12:37.542Z,6.4
2017-07-12T00:13:39.887Z,9.5
2017-07-12T00:14:42.080Z,5.5
2017-07-12T00:15:44.320Z,4.9
2017-07-12T00:16:46.611Z,4.4
2017-07-12T00:17:48.942Z,7.2
2017-07-12T00:18:51.287Z,5.1
2017-07-12T00:19:53.561Z,8.3
2017-07-12T00:20:55.713Z,6.4
2017-07-12T00:21:58.019Z,5.2
2017-07-12T00:23:00.194Z,6.3
2017-07-12T00:24:02.407Z,7.2
2017-07-12T00:25:04.684Z,5.6
2017-07-12T00:26:07.017Z,4.2
2017-07-12T00:27:09.340Z,5.0
2017-07-12T00:28:11.619Z,9.7
2017-07-12T00:29:13.915Z,6.8
2017-07-12T00:30:16.211Z,6.4
2017-07-12T00:31:18.477Z,6.5
2017-07-12T00:32:20.740Z,6.6
2017-07-12T00:33:23.047Z,4.6
2017-07-12T00:34:25.303Z,5.7
2017-07-12T00:35:27.512Z,5.0
2017-07-12T00:36:29.832Z,5.6
2017-07-12T00:37:32.209Z,4.6
2017-07-12T00:38:34.480Z,6.6
2017-07-12T00:39:36.755Z,8.4
2017-07-12T00:40:43.322Z,4.9
2017-07-12T00:41:45.501Z,9.5
2017-07-12T00:42:47.765Z,6.6
2017-07-12T00:43:50.009Z,5.5
2017-07-12T00:44:52.275Z,4.5
2017-07-12T00:45:54.541Z,4.3
2017-07-12T00:46:56.791Z,4.8
2017-07-12T00:47:59.135Z,6.4
2017-07-12T00:49:01.333Z,4.2
2017-07-12T00:50:03.585Z,7.7
2017-07-12T00:51:05.885Z,8.8
2017-07-12T00:52:08.207Z,6.2
2017-07-12T00:53:10.410Z,5.4
2017-07-12T00:54:12.635Z,5.9
2017-07-12T00:55:14.910Z,6.1
2017-07-12T00:56:17.198Z,8.2
2017-07-12T00:57:19.526Z,7.5
2017-07-12T00:58:21.768Z,4.9
2017-07-12T00:59:24.064Z,6.5
2017-07-12T01:00:26.359Z,7.6
2017-07-12T01:01:28.609Z,4.3
2017-07-12T01:02:30.842Z,6.4
2017-07-12T01:03:33.196Z,6.7
2017-07-12T01:04:35.435Z,5.9
2017-07-12T01:05:37.768Z,4.2
2017-07-12T01:06:39.982Z,4.5
2017-07-12T01:07:42.190Z,6.8
2017-07-12T01:08:44.434Z,5.1
2017-07-12T01:09:46.759Z,5.2
2017-07-12T01:10:49.135Z,5.4
2017-07-12T01:11:51.419Z,4.7
2017-07-12T01:12:53.668Z,10.0
2017-07-12T01:13:55.754Z,4.4
2017-07-12T01:14:58.025Z,7.3
2017-07-12T01:16:00.405Z,6.0
2017-07-12T01:17:02.673Z,4.8
2017-07-12T01:18:04.883Z,5.0
2017-07-12T01:19:07.090Z,5.6
2017-07-12T01:20:09.312Z,4.4
2017-07-12T01:21:11.467Z,9.1
2017-07-12T01:22:13.880Z,4.4
2017-07-12T01:23:16.203Z,6.2
2017-07-12T01:24:18.502Z,4.4
2017-07-12T01:25:20.757Z,4.6
2017-07-12T01:26:23.077Z,8.0
2017-07-12T01:27:25.400Z,6.9
2017-07-12T01:28:27.733Z,5.7
2017-07-12T01:29:30.100Z,7.2
2017-07-12T01:30:32.350Z,5.4
2017-07-12T01:31:34.605Z,7.5
2017-07-12T01:32:36.945Z,7.9
2017-07-12T01:33:39.182Z,5.3
2017-07-12T01:34:41.520Z,5.9
2017-07-12T01:35:43.840Z,6.9
2017-07-12T01:36:46.114Z,5.7
2017-07-12T01:37:48.499Z,4.9
2017-07-12T01:38:50.818Z,6.8
2017-07-12T01:39:53.018Z,5.6
2017-07-12T01:40:55.354Z,6.7
2017-07-12T01:41:57.657Z,4.9
2017-07-12T01:42:59.907Z,5.1
2017-07-12T01:44:02.270Z,6.9
2017-07-12T01:45:04.517Z,4.8
2017-07-12T01:46:06.838Z,6.9
2017-07-12T01:47:09.414Z,6.2
2017-07-12T01:48:11.751Z,5.9
2017-07-12T01:49:14.058Z,7.2
2017-07-12T01:50:16.353Z,8.2
2017-07-12T01:51:18.491Z,5.0
2017-07-12T01:52:20.793Z,5.6
2017-07-12T01:53:22.995Z,10.9
2017-07-12T01:54:25.292Z,10.2
2017-07-12T01:55:27.466Z,8.8
2017-07-12T01:56:29.794Z,7.2
2017-07-12T01:57:32.047Z,7.8
2017-07-12T01:58:34.215Z,10.2
2017-07-12T01:59:36.535Z,9.2
2017-07-12T02:00:38.764Z,5.6
2017-07-12T02:01:40.966Z,7.3
2017-07-12T02:02:43.202Z,7.6
2017-07-12T02:03:45.469Z,10.8
2017-07-12T02:04:47.647Z,7.7
2017-07-12T02:05:49.867Z,7.3
2017-07-12T02:06:52.114Z,8.1
2017-07-12T02:07:54.281Z,8.8
2017-07-12T02:08:56.589Z,8.0
2017-07-12T02:09:58.796Z,9.7
2017-07-12T02:11:01.022Z,7.1
2017-07-12T02:12:03.208Z,6.2
2017-07-12T02:13:05.428Z,8.7
2017-07-12T02:14:07.629Z,6.1
2017-07-12T02:15:09.952Z,10.6
2017-07-12T02:16:12.086Z,7.8
2017-07-12T02:17:14.403Z,7.7
2017-07-12T02:18:16.605Z,6.6
2017-07-12T02:19:18.913Z,10.1
2017-07-12T02:20:21.164Z,9.2
2017-07-12T02:21:23.458Z,7.9
2017-07-12T02:22:25.691Z,9.5
2017-07-12T02:23:27.862Z,7.5
2017-07-12T02:24:30.051Z,10.5
2017-07-12T02:25:32.278Z,8.4
2017-07-12T02:26:34.560Z,9.2
2017-07-12T02:27:36.780Z,9.0
2017-07-12T02:28:39.107Z,7.5
2017-07-12T02:29:41.240Z,11.1
2017-07-12T02:30:43.463Z,11.3
2017-07-12T02:31:45.699Z,8.8
2017-07-12T02:32:47.943Z,7.4
2017-07-12T02:33:50.218Z,13.0
2017-07-12T02:34:52.490Z,8.8
2017-07-12T02:35:54.654Z,7.8
2017-07-12T02:36:56.926Z,8.2
2017-07-12T02:37:59.209Z,8.9
2017-07-12T02:39:01.535Z,9.0
2017-07-12T02:40:03.786Z,7.8
2017-07-12T02:41:05.905Z,10.8
2017-07-12T02:42:08.180Z,11.1
2017-07-12T02:43:10.681Z,10.4
2017-07-12T02:44:13.130Z,9.2
2017-07-12T02:45:15.588Z,8.7
2017-07-12T02:46:18.234Z,7.8
2017-07-12T02:47:20.446Z,8.2
2017-07-12T02:48:22.691Z,8.6
2017-07-12T02:49:24.934Z,8.4
2017-07-12T02:50:27.129Z,10.1
2017-07-12T02:51:29.369Z,10.4
2017-07-12T02:52:31.681Z,8.4
2017-07-12T02:53:34.064Z,9.4
2017-07-12T02:54:36.370Z,8.2
2017-07-12T02:55:38.580Z,7.6
2017-07-12T02:56:40.867Z,9.4
2017-07-12T02:57:43.122Z,11.5
2017-07-12T02:58:45.409Z,8.7
2017-07-12T02:59:47.626Z,8.8
2017-07-12T03:00:49.813Z,9.7
2017-07-12T03:01:52.093Z,9.5
2017-07-12T03:02:54.383Z,10.1
2017-07-12T03:03:56.473Z,8.7
2017-07-12T03:04:58.759Z,10.6
2017-07-12T03:06:00.948Z,11.4
2017-07-12T03:07:03.291Z,16.4
2017-07-12T03:08:05.649Z,12.2
2017-07-12T03:09:07.953Z,7.7
2017-07-12T03:10:10.341Z,8.9
2017-07-12T03:11:12.588Z,8.9
2017-07-12T03:12:14.822Z,10.9
2017-07-12T03:13:17.106Z,11.8
2017-07-12T03:14:19.223Z,9.4
2017-07-12T03:15:21.978Z,8.8
2017-07-12T03:16:24.262Z,12.0
2017-07-12T03:17:26.490Z,9.5
2017-07-12T03:18:28.655Z,9.2
2017-07-12T03:19:31.015Z,10.5
2017-07-12T03:20:33.205Z,10.4
2017-07-12T03:21:35.473Z,9.2
2017-07-12T03:22:37.788Z,9.1
2017-07-12T03:23:40.112Z,11.3
2017-07-12T03:24:42.292Z,10.6
2017-07-12T03:25:44.667Z,12.9
2017-07-12T03:26:46.933Z,11.4
2017-07-12T03:27:49.267Z,12.4
2017-07-12T03:28:51.466Z,12.7
2017-07-12T03:29:53.702Z,11.9
2017-07-12T03:30:56.089Z,15.2
2017-07-12T03:31:58.414Z,10.8
2017-07-12T03:33:00.527Z,10.2
2017-07-12T03:34:02.690Z,9.3
2017-07-12T03:35:04.904Z,10.2
2017-07-12T03:36:07.143Z,11.8
2017-07-12T03:37:09.402Z,9.7
2017-07-12T03:38:11.661Z,9.2
2017-07-12T03:39:13.939Z,12.8
2017-07-12T03:40:16.313Z,12.7
2017-07-12T03:41:18.524Z,10.3
2017-07-12T03:42:20.744Z,10.5
2017-07-12T03:43:22.965Z,10.6
2017-07-12T03:44:25.174Z,10.1
2017-07-12T03:45:27.444Z,12.6
2017-07-12T03:46:29.635Z,10.0
2017-07-12T03:47:31.924Z,10.3
2017-07-12T03:48:34.264Z,14.1
2017-07-12T03:49:36.527Z,10.2
2017-07-12T03:50:38.822Z,11.6
2017-07-12T03:51:41.068Z,8.6
2017-07-12T03:52:43.278Z,11.1
2017-07-12T03:53:45.621Z,11.2
2017-07-12T03:54:47.879Z,14.0
2017-07-12T03:55:50.183Z,9.4
2017-07-12T03:56:52.526Z,8.3
2017-07-12T03:57:54.824Z,11.0
2017-07-12T03:58:57.062Z,12.4
2017-07-12T04:00:03.590Z,10.9
2017-07-12T04:01:05.814Z,8.6
2017-07-12T04:02:08.075Z,8.6
2017-07-12T04:03:10.339Z,13.2
2017-07-12T04:04:12.682Z,7.9
2017-07-12T04:05:14.923Z,10.4
2017-07-12T04:06:17.168Z,13.4
2017-07-12T04:07:19.421Z,7.4
2017-07-12T04:08:21.927Z,12.7
2017-07-12T04:09:24.180Z,10.1
2017-07-12T04:10:26.322Z,10.9
2017-07-12T04:11:28.508Z,17.6
2017-07-12T04:12:30.701Z,8.1
2017-07-12T04:13:32.997Z,13.3
2017-07-12T04:14:35.175Z,8.3
2017-07-12T04:15:37.456Z,7.0
2017-07-12T04:16:39.594Z,14.7
2017-07-12T04:17:41.853Z,8.1
2017-07-12T04:18:44.127Z,10.3
2017-07-12T04:19:46.372Z,9.8
2017-07-12T04:20:48.655Z,9.3
2017-07-12T04:21:50.862Z,9.2
2017-07-12T04:22:53.160Z,11.3
2017-07-12T04:23:55.413Z,9.4
2017-07-12T04:24:57.694Z,9.4
2017-07-12T04:25:59.856Z,7.7
2017-07-12T04:27:02.159Z,10.9
2017-07-12T04:28:04.343Z,7.3
2017-07-12T04:29:06.600Z,6.7
2017-07-12T04:30:08.916Z,9.7
2017-07-12T04:31:11.142Z,10.8
2017-07-12T04:32:13.361Z,9.3
2017-07-12T04:33:15.612Z,9.5
2017-07-12T04:34:17.902Z,12.1
2017-07-12T04:35:20.211Z,7.1
2017-07-12T04:36:22.341Z,8.5
2017-07-12T04:37:24.639Z,11.3
2017-07-12T04:38:27.033Z,8.0
2017-07-12T04:39:29.398Z,7.7
2017-07-12T04:40:31.525Z,8.7
2017-07-12T04:41:33.839Z,8.6
2017-07-12T04:42:36.060Z,14.0
2017-07-12T04:43:38.294Z,7.1
2017-07-12T04:44:40.505Z,14.3
2017-07-12T04:45:42.768Z,10.2
2017-07-12T04:46:45.129Z,9.8
2017-07-12T04:47:47.337Z,9.2
2017-07-12T04:48:49.598Z,9.1
2017-07-12T04:49:51.833Z,13.4
2017-07-12T04:50:54.088Z,8.0
2017-07-12T04:51:56.425Z,7.8
2017-07-12T04:52:58.617Z,9.1
2017-07-12T04:54:00.974Z,10.4
2017-07-12T04:55:03.216Z,10.1
2017-07-12T04:56:05.476Z,9.3
2017-07-12T04:57:07.717Z,7.8
2017-07-12T04:58:10.028Z,11.8
2017-07-12T04:59:12.305Z,6.4
2017-07-12T05:00:14.630Z,7.7
2017-07-12T05:01:16.815Z,7.8
2017-07-12T05:02:19.053Z,6.0
2017-07-12T05:03:21.369Z,8.0
2017-07-12T05:04:23.471Z,7.6
2017-07-12T05:05:25.663Z,8.6
2017-07-12T05:06:27.924Z,6.5
2017-07-12T05:07:30.269Z,8.8
2017-07-12T05:08:32.414Z,7.1
2017-07-12T05:09:34.747Z,5.7
2017-07-12T05:10:36.963Z,7.5
2017-07-12T05:11:39.236Z,9.8
2017-07-12T05:12:41.405Z,10.0
2017-07-12T05:13:43.690Z,10.1
2017-07-12T05:14:45.935Z,6.6
2017-07-12T05:15:48.250Z,7.5
2017-07-12T05:16:50.531Z,6.0
2017-07-12T05:17:52.785Z,10.1
2017-07-12T05:18:55.110Z,6.1
2017-07-12T05:19:57.310Z,8.2
2017-07-12T05:20:59.569Z,7.4
2017-07-12T05:22:01.864Z,11.5
2017-07-12T05:23:04.270Z,8.1
2017-07-12T05:24:06.579Z,8.6
2017-07-12T05:25:08.867Z,8.5
2017-07-12T05:26:11.176Z,7.5
2017-07-12T05:27:13.304Z,9.7
2017-07-12T05:28:15.642Z,8.1
2017-07-12T05:29:17.868Z,10.2
2017-07-12T05:30:20.079Z,10.7
2017-07-12T05:31:22.348Z,11.7
2017-07-12T05:32:24.595Z,8.6
2017-07-12T05:33:26.746Z,8.1
2017-07-12T05:34:28.990Z,8.5
2017-07-12T05:35:31.280Z,10.2
2017-07-12T05:36:33.516Z,7.8
2017-07-12T05:37:35.744Z,6.9
2017-07-12T05:38:38.043Z,7.9
2017-07-12T05:39:40.324Z,10.2
2017-07-12T05:40:42.588Z,6.8
2017-07-12T05:41:44.898Z,5.6
2017-07-12T05:42:47.119Z,5.9
2017-07-12T05:43:49.345Z,8.4
2017-07-12T05:44:51.712Z,6.2
2017-07-12T05:45:53.867Z,8.1
2017-07-12T05:46:56.232Z,7.5
2017-07-12T05:47:58.534Z,6.4
2017-07-12T05:49:00.895Z,8.2
2017-07-12T05:50:03.107Z,7.5
2017-07-12T05:51:05.477Z,8.0
2017-07-12T05:52:07.753Z,12.8
2017-07-12T05:53:10.052Z,9.1
2017-07-12T05:54:12.279Z,11.6
2017-07-12T05:55:14.548Z,7.0
2017-07-12T05:56:16.858Z,13.0
2017-07-12T05:57:19.118Z,6.6
2017-07-12T05:58:21.492Z,8.4
2017-07-12T05:59:23.911Z,10.5
2017-07-12T06:00:26.148Z,6.0
2017-07-12T06:01:28.400Z,6.3
2017-07-12T06:02:30.773Z,7.8
2017-07-12T06:03:33.010Z,10.6
2017-07-12T06:04:35.236Z,8.2
2017-07-12T06:05:37.442Z,9.8
2017-07-12T06:06:39.720Z,7.7
2017-07-12T06:07:41.817Z,6.7
2017-07-12T06:08:44.006Z,9.0
2017-07-12T06:09:46.217Z,10.1
2017-07-12T06:10:48.564Z,7.7
2017-07-12T06:11:50.742Z,10.1
2017-07-12T06:12:53.015Z,11.0
2017-07-12T06:13:55.284Z,9.7
2017-07-12T06:14:57.615Z,10.6
2017-07-12T06:15:59.889Z,7.8
2017-07-12T06:17:02.121Z,10.5
2017-07-12T06:18:04.368Z,10.9
2017-07-12T06:19:06.732Z,11.6
2017-07-12T06:20:08.957Z,9.7
2017-07-12T06:21:11.167Z,7.3
2017-07-12T06:22:13.470Z,8.5
2017-07-12T06:23:15.627Z,9.6
2017-07-12T06:24:17.890Z,8.8
2017-07-12T06:25:20.095Z,9.8
2017-07-12T06:26:22.333Z,12.7
2017-07-12T06:27:24.445Z,8.1
2017-07-12T06:28:26.723Z,8.8
2017-07-12T06:29:28.924Z,8.9
2017-07-12T06:30:31.224Z,9.5
2017-07-12T06:31:33.484Z,11.9
2017-07-12T06:32:35.706Z,7.7
2017-07-12T06:33:38.083Z,10.7
2017-07-12T06:34:40.412Z,11.9
2017-07-12T06:35:42.485Z,10.5
2017-07-12T06:36:44.703Z,10.9
2017-07-12T06:37:46.894Z,10.1
2017-07-12T06:38:49.155Z,8.5
2017-07-12T06:39:51.470Z,8.6
2017-07-12T06:40:53.816Z,9.4
2017-07-12T06:41:56.084Z,11.6
2017-07-12T06:42:58.331Z,9.5
2017-07-12T06:44:00.533Z,10.0
2017-07-12T06:45:02.886Z,11.2
2017-07-12T06:46:05.126Z,13.8
2017-07-12T06:47:07.451Z,9.4
2017-07-12T06:48:09.643Z,10.2
2017-07-12T06:49:11.976Z,10.1
2017-07-12T06:50:14.097Z,7.9
2017-07-12T06:51:16.344Z,9.2
2017-07-12T06:52:18.578Z,11.7
2017-07-12T06:53:20.775Z,10.9
2017-07-12T06:54:23.066Z,12.2
2017-07-12T06:55:25.221Z,12.9
2017-07-12T06:56:27.503Z,9.9
2017-07-12T06:57:29.828Z,10.4
2017-07-12T06:58:32.186Z,9.5
2017-07-12T06:59:34.423Z,7.6
2017-07-12T07:00:36.712Z,9.8
2017-07-12T07:01:39.042Z,10.8
2017-07-12T07:02:41.278Z,15.9
2017-07-12T07:03:43.642Z,8.7
2017-07-12T07:04:45.985Z,9.1
2017-07-12T07:05:48.284Z,11.4
2017-07-12T07:06:50.641Z,10.9
2017-07-12T07:07:52.865Z,10.6
2017-07-12T07:08:55.070Z,10.8
2017-07-12T07:09:57.251Z,14.4
2017-07-12T07:10:59.439Z,10.7
2017-07-12T07:12:01.818Z,9.4
2017-07-12T07:13:04.149Z,13.2
2017-07-12T07:14:06.382Z,10.4
2017-07-12T07:15:08.709Z,9.1
2017-07-12T07:16:11.022Z,13.7
2017-07-12T07:17:13.293Z,9.4
2017-07-12T07:18:15.586Z,10.9
2017-07-12T07:19:17.880Z,10.5
2017-07-12T07:20:20.174Z,11.7
2017-07-12T07:21:22.320Z,14.6
2017-07-12T07:22:24.644Z,11.3
2017-07-12T07:23:26.830Z,9.1
2017-07-12T07:24:29.049Z,9.3
2017-07-12T07:25:31.322Z,8.0
2017-07-12T07:26:33.630Z,12.9
2017-07-12T07:27:35.797Z,10.9
2017-07-12T07:28:38.038Z,13.3
2017-07-12T07:29:40.249Z,10.7
2017-07-12T07:30:42.720Z,12.4
2017-07-12T07:31:44.963Z,10.3
2017-07-12T07:32:47.225Z,10.2
2017-07-12T07:33:49.434Z,7.8
2017-07-12T07:34:51.787Z,7.7
2017-07-12T07:35:54.022Z,11.9
2017-07-12T07:36:56.264Z,9.8
2017-07-12T07:37:58.552Z,9.8
2017-07-12T07:39:00.843Z,14.4
2017-07-12T07:40:03.070Z,10.0
2017-07-12T07:41:05.392Z,10.6
2017-07-12T07:42:07.670Z,10.5
2017-07-12T07:43:09.946Z,10.3
2017-07-12T07:44:12.235Z,8.5
2017-07-12T07:45:14.572Z,15.0
2017-07-12T07:46:16.751Z,9.9
2017-07-12T07:47:19.089Z,9.7
2017-07-12T07:48:21.412Z,9.8
2017-07-12T07:49:23.685Z,8.3
2017-07-12T07:50:25.910Z,13.6
2017-07-12T07:51:28.178Z,9.5
2017-07-12T07:52:30.493Z,10.8
2017-07-12T07:53:32.770Z,9.5
2017-07-12T07:54:35.094Z,11.0
2017-07-12T07:55:37.375Z,16.7
2017-07-12T07:56:39.706Z,10.9
2017-07-12T07:57:41.958Z,11.9
2017-07-12T07:58:44.166Z,7.1
2017-07-12T07:59:46.438Z,9.3
2017-07-12T08:00:48.658Z,9.2
2017-07-12T08:01:50.836Z,9.3
2017-07-12T08:02:53.096Z,9.8
2017-07-12T08:03:55.426Z,8.5
2017-07-12T08:04:57.654Z,8.6
2017-07-12T08:05:59.840Z,11.2
2017-07-12T08:07:02.134Z,10.8
2017-07-12T08:08:04.319Z,9.4
2017-07-12T08:09:06.492Z,10.0
2017-07-12T08:10:08.854Z,9.4
2017-07-12T08:11:11.042Z,8.5
2017-07-12T08:12:13.333Z,8.9
2017-07-12T08:13:15.595Z,11.0
2017-07-12T08:14:17.882Z,11.4
2017-07-12T08:15:20.209Z,10.1
2017-07-12T08:16:22.540Z,9.1
2017-07-12T08:17:24.935Z,12.7
2017-07-12T08:18:27.137Z,9.4
2017-07-12T08:19:29.569Z,10.7
2017-07-12T08:20:31.838Z,8.8
2017-07-12T08:21:34.143Z,15.3
2017-07-12T08:22:36.465Z,11.2
2017-07-12T08:23:38.829Z,11.2
2017-07-12T08:24:41.018Z,9.7
2017-07-12T08:25:43.315Z,10.7
2017-07-12T08:26:45.541Z,12.2
2017-07-12T08:27:47.715Z,10.9
2017-07-12T08:28:49.981Z,11.4
2017-07-12T08:29:52.317Z,14.7
2017-07-12T08:30:54.547Z,9.0
2017-07-12T08:31:56.853Z,10.4
2017-07-12T08:32:59.195Z,12.4
2017-07-12T08:34:01.470Z,11.9
2017-07-12T08:35:03.855Z,13.6
2017-07-12T08:36:06.114Z,9.7
2017-07-12T08:37:08.272Z,11.1
2017-07-12T08:38:10.481Z,8.5
2017-07-12T08:39:12.705Z,13.2
2017-07-12T08:40:15.003Z,11.4
2017-07-12T08:41:17.245Z,17.8
2017-07-12T08:42:19.630Z,15.6
2017-07-12T08:43:21.958Z,10.2
2017-07-12T08:44:24.185Z,13.6
2017-07-12T08:45:26.542Z,15.7
2017-07-12T08:46:28.820Z,15.2
2017-07-12T08:47:31.131Z,14.3
2017-07-12T08:48:33.390Z,11.2
2017-07-12T08:49:35.710Z,16.4
2017-07-12T08:50:37.995Z,14.4
2017-07-12T08:51:40.243Z,11.3
2017-07-12T08:52:42.578Z,13.4
2017-07-12T08:53:44.838Z,15.9
2017-07-12T08:54:47.217Z,16.7
2017-07-12T08:55:49.501Z,14.0
2017-07-12T08:56:51.728Z,11.8
2017-07-12T08:57:53.793Z,16.2
2017-07-12T08:58:56.012Z,13.2
2017-07-12T08:59:58.254Z,14.6
2017-07-12T09:01:00.481Z,16.5
2017-07-12T09:02:02.818Z,13.7
2017-07-12T09:03:05.154Z,15.1
2017-07-12T09:04:07.513Z,15.7
2017-07-12T09:05:09.885Z,12.4
2017-07-12T09:06:12.136Z,12.8
2017-07-12T09:07:14.396Z,13.9
2017-07-12T09:08:16.609Z,18.4
2017-07-12T09:09:18.999Z,14.8
2017-07-12T09:10:21.211Z,16.9
2017-07-12T09:11:23.354Z,14.7
2017-07-12T09:12:25.535Z,14.4
2017-07-12T09:13:27.839Z,16.9
2017-07-12T09:14:30.143Z,19.7
2017-07-12T09:15:32.421Z,13.4
2017-07-12T09:16:34.652Z,17.2
2017-07-12T09:17:36.799Z,19.6
2017-07-12T09:18:39.077Z,11.7
2017-07-12T09:19:41.327Z,19.1
2017-07-12T09:20:43.629Z,12.7
2017-07-12T09:21:45.897Z,18.2
2017-07-12T09:22:48.163Z,16.7
2017-07-12T09:23:50.458Z,20.7
